sensor_id;sensor_type;location;lat;lon;timestamp;pressure;altitude;pressure_sealevel;temperature
68952;BMP180;56000;51.146;17.112;2023-03-03T00:01:06;100721.40;;;0.90
68952;BMP180;56000;51.146;17.112;2023-03-03T00:03:39;100715.40;;;0.90
68952;BMP180;56000;51.146;17.112;2023-03-03T00:06:15;100721.20;;;0.90
68952;BMP180;56000;51.146;17.112;2023-03-03T00:08:48;100726.20;;;0.90
68952;BMP180;56000;51.146;17.112;2023-03-03T00:11:21;100725.40;;;0.90
68952;BMP180;56000;51.146;17.112;2023-03-03T00:13:55;100734.80;;;0.90
68952;BMP180;56000;51.146;17.112;2023-03-03T00:16:34;100730.20;;;0.90
68952;BMP180;56000;51.146;17.112;2023-03-03T00:19:16;100731.20;;;0.86
68952;BMP180;56000;51.146;17.112;2023-03-03T00:21:51;100734.20;;;0.80
68952;BMP180;56000;51.146;17.112;2023-03-03T00:24:29;100743.80;;;0.80
68952;BMP180;56000;51.146;17.112;2023-03-03T00:27:18;100746.60;;;0.74
68952;BMP180;56000;51.146;17.112;2023-03-03T00:29:56;100749.20;;;0.70
68952;BMP180;56000;51.146;17.112;2023-03-03T00:32:35;100737.40;;;0.70
68952;BMP180;56000;51.146;17.112;2023-03-03T00:35:23;100730.00;;;0.70
68952;BMP180;56000;51.146;17.112;2023-03-03T00:38:00;100729.60;;;0.72
68952;BMP180;56000;51.146;17.112;2023-03-03T00:40:36;100731.20;;;0.80
68952;BMP180;56000;51.146;17.112;2023-03-03T00:43:19;100729.80;;;0.78
68952;BMP180;56000;51.146;17.112;2023-03-03T00:45:54;100728.60;;;0.76
68952;BMP180;56000;51.146;17.112;2023-03-03T00:48:31;100726.20;;;0.70
68952;BMP180;56000;51.146;17.112;2023-03-03T00:51:26;100719.60;;;0.70
68952;BMP180;56000;51.146;17.112;2023-03-03T00:54:01;100715.80;;;0.70
68952;BMP180;56000;51.146;17.112;2023-03-03T00:56:34;100713.40;;;0.70
68952;BMP180;56000;51.146;17.112;2023-03-03T00:59:10;100713.00;;;0.70
68952;BMP180;56000;51.146;17.112;2023-03-03T01:01:43;100714.60;;;0.70
68952;BMP180;56000;51.146;17.112;2023-03-03T01:04:16;100707.00;;;0.70
68952;BMP180;56000;51.146;17.112;2023-03-03T01:06:49;100705.20;;;0.70
68952;BMP180;56000;51.146;17.112;2023-03-03T01:09:23;100710.20;;;0.70
68952;BMP180;56000;51.146;17.112;2023-03-03T01:11:57;100702.40;;;0.70
68952;BMP180;56000;51.146;17.112;2023-03-03T01:14:31;100701.20;;;0.70
68952;BMP180;56000;51.146;17.112;2023-03-03T01:17:05;100696.80;;;0.70
68952;BMP180;56000;51.146;17.112;2023-03-03T01:19:38;100692.40;;;0.70
68952;BMP180;56000;51.146;17.112;2023-03-03T01:22:11;100681.40;;;0.70
68952;BMP180;56000;51.146;17.112;2023-03-03T01:24:44;100678.40;;;0.70
68952;BMP180;56000;51.146;17.112;2023-03-03T01:27:17;100677.80;;;0.70
68952;BMP180;56000;51.146;17.112;2023-03-03T01:29:51;100680.60;;;0.70
68952;BMP180;56000;51.146;17.112;2023-03-03T01:32:24;100676.40;;;0.78
68952;BMP180;56000;51.146;17.112;2023-03-03T01:34:58;100664.80;;;0.80
68952;BMP180;56000;51.146;17.112;2023-03-03T01:37:31;100667.20;;;0.80
68952;BMP180;56000;51.146;17.112;2023-03-03T01:40:13;100662.60;;;0.80
68952;BMP180;56000;51.146;17.112;2023-03-03T01:42:47;100661.20;;;0.82
68952;BMP180;56000;51.146;17.112;2023-03-03T01:45:24;100656.60;;;0.88
68952;BMP180;56000;51.146;17.112;2023-03-03T01:48:04;100659.00;;;0.90
68952;BMP180;56000;51.146;17.112;2023-03-03T01:50:44;100655.20;;;0.90
68952;BMP180;56000;51.146;17.112;2023-03-03T01:53:21;100654.60;;;0.90
68952;BMP180;56000;51.146;17.112;2023-03-03T01:55:56;100649.60;;;0.90
68952;BMP180;56000;51.146;17.112;2023-03-03T01:58:35;100650.80;;;0.90
68952;BMP180;56000;51.146;17.112;2023-03-03T02:01:13;100647.00;;;0.90
68952;BMP180;56000;51.146;17.112;2023-03-03T02:03:47;100645.80;;;0.90
68952;BMP180;56000;51.146;17.112;2023-03-03T02:06:24;100642.60;;;0.90
68952;BMP180;56000;51.146;17.112;2023-03-03T02:09:03;100645.00;;;0.90
68952;BMP180;56000;51.146;17.112;2023-03-03T02:11:39;100641.80;;;0.90
68952;BMP180;56000;51.146;17.112;2023-03-03T02:14:14;100638.20;;;0.92
68952;BMP180;56000;51.146;17.112;2023-03-03T02:16:47;100631.80;;;0.96
68952;BMP180;56000;51.146;17.112;2023-03-03T02:19:30;100627.60;;;0.90
68952;BMP180;56000;51.146;17.112;2023-03-03T02:22:04;100615.00;;;0.98
68952;BMP180;56000;51.146;17.112;2023-03-03T02:24:43;100616.00;;;1.00
68952;BMP180;56000;51.146;17.112;2023-03-03T02:27:18;100624.60;;;0.90
68952;BMP180;56000;51.146;17.112;2023-03-03T02:29:51;100631.00;;;0.90
68952;BMP180;56000;51.146;17.112;2023-03-03T02:32:24;100634.80;;;0.80
68952;BMP180;56000;51.146;17.112;2023-03-03T02:34:57;100637.40;;;0.80
68952;BMP180;56000;51.146;17.112;2023-03-03T02:37:31;100634.40;;;0.80
68952;BMP180;56000;51.146;17.112;2023-03-03T02:40:05;100644.40;;;0.80
68952;BMP180;56000;51.146;17.112;2023-03-03T02:42:41;100639.60;;;0.70
68952;BMP180;56000;51.146;17.112;2023-03-03T02:45:15;100632.40;;;0.70
68952;BMP180;56000;51.146;17.112;2023-03-03T02:47:52;100643.40;;;0.64
68952;BMP180;56000;51.146;17.112;2023-03-03T02:50:25;100654.00;;;0.60
68952;BMP180;56000;51.146;17.112;2023-03-03T02:52:59;100660.60;;;0.60
68952;BMP180;56000;51.146;17.112;2023-03-03T02:55:32;100658.40;;;0.60
68952;BMP180;56000;51.146;17.112;2023-03-03T02:58:05;100661.80;;;0.60
68952;BMP180;56000;51.146;17.112;2023-03-03T03:00:39;100673.80;;;0.50
68952;BMP180;56000;51.146;17.112;2023-03-03T03:03:12;100675.20;;;0.50
68952;BMP180;56000;51.146;17.112;2023-03-03T03:05:45;100676.00;;;0.50
68952;BMP180;56000;51.146;17.112;2023-03-03T03:08:21;100670.20;;;0.50
68952;BMP180;56000;51.146;17.112;2023-03-03T03:10:54;100664.20;;;0.50
68952;BMP180;56000;51.146;17.112;2023-03-03T03:13:28;100660.00;;;0.50
68952;BMP180;56000;51.146;17.112;2023-03-03T03:16:03;100662.20;;;0.50
68952;BMP180;56000;51.146;17.112;2023-03-03T03:18:37;100660.60;;;0.50
68952;BMP180;56000;51.146;17.112;2023-03-03T03:21:12;100663.60;;;0.50
68952;BMP180;56000;51.146;17.112;2023-03-03T03:23:46;100656.60;;;0.50
68952;BMP180;56000;51.146;17.112;2023-03-03T03:26:19;100646.80;;;0.50
68952;BMP180;56000;51.146;17.112;2023-03-03T03:28:53;100640.00;;;0.50
68952;BMP180;56000;51.146;17.112;2023-03-03T03:31:26;100639.40;;;0.50
68952;BMP180;56000;51.146;17.112;2023-03-03T03:33:59;100631.20;;;0.50
68952;BMP180;56000;51.146;17.112;2023-03-03T03:36:33;100628.40;;;0.52
68952;BMP180;56000;51.146;17.112;2023-03-03T03:39:06;100626.00;;;0.56
68952;BMP180;56000;51.146;17.112;2023-03-03T03:41:41;100628.80;;;0.58
68952;BMP180;56000;51.146;17.112;2023-03-03T03:44:14;100623.80;;;0.60
68952;BMP180;56000;51.146;17.112;2023-03-03T03:46:47;100631.20;;;0.60
68952;BMP180;56000;51.146;17.112;2023-03-03T03:49:21;100634.40;;;0.60
68952;BMP180;56000;51.146;17.112;2023-03-03T03:51:54;100644.60;;;0.60
68952;BMP180;56000;51.146;17.112;2023-03-03T03:54:29;100643.80;;;0.60
68952;BMP180;56000;51.146;17.112;2023-03-03T03:57:02;100643.20;;;0.60
68952;BMP180;56000;51.146;17.112;2023-03-03T03:59:36;100647.60;;;0.56
68952;BMP180;56000;51.146;17.112;2023-03-03T04:02:10;100650.20;;;0.52
68952;BMP180;56000;51.146;17.112;2023-03-03T04:04:43;100647.20;;;0.50
68952;BMP180;56000;51.146;17.112;2023-03-03T04:07:16;100651.40;;;0.50
68952;BMP180;56000;51.146;17.112;2023-03-03T04:09:50;100656.40;;;0.50
68952;BMP180;56000;51.146;17.112;2023-03-03T04:12:23;100661.00;;;0.50
68952;BMP180;56000;51.146;17.112;2023-03-03T04:14:56;100663.80;;;0.50
68952;BMP180;56000;51.146;17.112;2023-03-03T04:17:30;100667.00;;;0.50
68952;BMP180;56000;51.146;17.112;2023-03-03T04:20:04;100669.80;;;0.42
68952;BMP180;56000;51.146;17.112;2023-03-03T04:22:38;100673.40;;;0.40
68952;BMP180;56000;51.146;17.112;2023-03-03T04:25:15;100679.00;;;0.40
68952;BMP180;56000;51.146;17.112;2023-03-03T04:27:49;100672.60;;;0.40
68952;BMP180;56000;51.146;17.112;2023-03-03T04:30:24;100671.80;;;0.40
68952;BMP180;56000;51.146;17.112;2023-03-03T04:32:58;100674.20;;;0.40
68952;BMP180;56000;51.146;17.112;2023-03-03T04:35:32;100667.80;;;0.40
68952;BMP180;56000;51.146;17.112;2023-03-03T04:38:05;100675.60;;;0.40
68952;BMP180;56000;51.146;17.112;2023-03-03T04:40:40;100689.40;;;0.40
68952;BMP180;56000;51.146;17.112;2023-03-03T04:43:14;100690.00;;;0.40
68952;BMP180;56000;51.146;17.112;2023-03-03T04:45:48;100689.20;;;0.40
68952;BMP180;56000;51.146;17.112;2023-03-03T04:48:21;100689.20;;;0.40
68952;BMP180;56000;51.146;17.112;2023-03-03T04:50:55;100693.80;;;0.40
68952;BMP180;56000;51.146;17.112;2023-03-03T04:53:28;100690.40;;;0.38
68952;BMP180;56000;51.146;17.112;2023-03-03T04:56:01;100689.00;;;0.40
68952;BMP180;56000;51.146;17.112;2023-03-03T04:58:35;100690.00;;;0.40
68952;BMP180;56000;51.146;17.112;2023-03-03T05:01:11;100687.00;;;0.40
68952;BMP180;56000;51.146;17.112;2023-03-03T05:03:45;100680.40;;;0.36
68952;BMP180;56000;51.146;17.112;2023-03-03T05:06:18;100676.00;;;0.30
68952;BMP180;56000;51.146;17.112;2023-03-03T05:08:51;100687.00;;;0.30
68952;BMP180;56000;51.146;17.112;2023-03-03T05:11:25;100679.60;;;0.30
68952;BMP180;56000;51.146;17.112;2023-03-03T05:13:58;100669.40;;;0.30
68952;BMP180;56000;51.146;17.112;2023-03-03T05:16:31;100669.00;;;0.30
68952;BMP180;56000;51.146;17.112;2023-03-03T05:19:04;100667.60;;;0.30
68952;BMP180;56000;51.146;17.112;2023-03-03T05:21:38;100665.80;;;0.30
68952;BMP180;56000;51.146;17.112;2023-03-03T05:24:14;100673.40;;;0.30
68952;BMP180;56000;51.146;17.112;2023-03-03T05:26:47;100678.40;;;0.30
68952;BMP180;56000;51.146;17.112;2023-03-03T05:29:20;100681.60;;;0.30
68952;BMP180;56000;51.146;17.112;2023-03-03T05:31:54;100669.20;;;0.34
68952;BMP180;56000;51.146;17.112;2023-03-03T05:34:27;100672.00;;;0.38
68952;BMP180;56000;51.146;17.112;2023-03-03T05:37:00;100663.20;;;0.32
68952;BMP180;56000;51.146;17.112;2023-03-03T05:39:34;100654.20;;;0.32
68952;BMP180;56000;51.146;17.112;2023-03-03T05:42:08;100655.60;;;0.30
68952;BMP180;56000;51.146;17.112;2023-03-03T05:44:41;100663.20;;;0.32
68952;BMP180;56000;51.146;17.112;2023-03-03T05:47:14;100668.40;;;0.38
68952;BMP180;56000;51.146;17.112;2023-03-03T05:49:47;100669.40;;;0.40
68952;BMP180;56000;51.146;17.112;2023-03-03T05:52:21;100671.40;;;0.40
68952;BMP180;56000;51.146;17.112;2023-03-03T05:54:55;100669.60;;;0.40
68952;BMP180;56000;51.146;17.112;2023-03-03T05:57:28;100679.80;;;0.40
68952;BMP180;56000;51.146;17.112;2023-03-03T06:00:01;100681.60;;;0.40
68952;BMP180;56000;51.146;17.112;2023-03-03T06:02:42;100678.80;;;0.40
68952;BMP180;56000;51.146;17.112;2023-03-03T06:05:16;100682.00;;;0.40
68952;BMP180;56000;51.146;17.112;2023-03-03T06:07:49;100683.80;;;0.30
68952;BMP180;56000;51.146;17.112;2023-03-03T06:10:23;100683.80;;;0.30
68952;BMP180;56000;51.146;17.112;2023-03-03T06:12:56;100676.20;;;0.30
68952;BMP180;56000;51.146;17.112;2023-03-03T06:15:30;100682.40;;;0.30
68952;BMP180;56000;51.146;17.112;2023-03-03T06:18:03;100689.20;;;0.30
68952;BMP180;56000;51.146;17.112;2023-03-03T06:20:37;100687.60;;;0.30
68952;BMP180;56000;51.146;17.112;2023-03-03T06:23:10;100702.80;;;0.30
68952;BMP180;56000;51.146;17.112;2023-03-03T06:25:43;100707.00;;;0.30
68952;BMP180;56000;51.146;17.112;2023-03-03T06:28:16;100706.40;;;0.24
68952;BMP180;56000;51.146;17.112;2023-03-03T06:30:53;100709.40;;;0.20
68952;BMP180;56000;51.146;17.112;2023-03-03T06:33:26;100718.80;;;0.30
68952;BMP180;56000;51.146;17.112;2023-03-03T06:36:00;100718.60;;;0.30
68952;BMP180;56000;51.146;17.112;2023-03-03T06:38:36;100719.60;;;0.30
68952;BMP180;56000;51.146;17.112;2023-03-03T06:41:09;100709.60;;;0.40
68952;BMP180;56000;51.146;17.112;2023-03-03T06:43:43;100699.80;;;0.40
68952;BMP180;56000;51.146;17.112;2023-03-03T06:46:16;100709.40;;;0.40
68952;BMP180;56000;51.146;17.112;2023-03-03T06:48:49;100697.00;;;0.40
68952;BMP180;56000;51.146;17.112;2023-03-03T06:51:29;100699.60;;;0.40
68952;BMP180;56000;51.146;17.112;2023-03-03T06:54:10;100704.20;;;0.40
68952;BMP180;56000;51.146;17.112;2023-03-03T06:56:45;100715.40;;;0.40
68952;BMP180;56000;51.146;17.112;2023-03-03T06:59:20;100712.00;;;0.50
68952;BMP180;56000;51.146;17.112;2023-03-03T07:01:54;100707.00;;;0.50
68952;BMP180;56000;51.146;17.112;2023-03-03T07:04:31;100719.00;;;0.44
68952;BMP180;56000;51.146;17.112;2023-03-03T07:07:16;100720.60;;;0.40
68952;BMP180;56000;51.146;17.112;2023-03-03T07:09:51;100728.80;;;0.38
68952;BMP180;56000;51.146;17.112;2023-03-03T07:12:28;100725.60;;;0.30
68952;BMP180;56000;51.146;17.112;2023-03-03T07:15:14;100735.20;;;0.30
68952;BMP180;56000;51.146;17.112;2023-03-03T07:17:51;100737.80;;;0.30
68952;BMP180;56000;51.146;17.112;2023-03-03T07:20:34;100750.60;;;0.30
68952;BMP180;56000;51.146;17.112;2023-03-03T07:23:20;100745.60;;;0.30
68952;BMP180;56000;51.146;17.112;2023-03-03T07:25:54;100755.00;;;0.30
68952;BMP180;56000;51.146;17.112;2023-03-03T07:28:30;100759.80;;;0.30
68952;BMP180;56000;51.146;17.112;2023-03-03T07:31:19;100759.80;;;0.30
68952;BMP180;56000;51.146;17.112;2023-03-03T07:33:58;100744.20;;;0.30
68952;BMP180;56000;51.146;17.112;2023-03-03T07:36:35;100743.40;;;0.30
68952;BMP180;56000;51.146;17.112;2023-03-03T07:39:27;100745.60;;;0.38
68952;BMP180;56000;51.146;17.112;2023-03-03T07:42:16;100741.20;;;0.40
68952;BMP180;56000;51.146;17.112;2023-03-03T07:44:59;100742.80;;;0.40
68952;BMP180;56000;51.146;17.112;2023-03-03T07:47:37;100730.40;;;0.40
68952;BMP180;56000;51.146;17.112;2023-03-03T07:50:19;100733.80;;;0.40
68952;BMP180;56000;51.146;17.112;2023-03-03T07:52:56;100750.80;;;0.46
68952;BMP180;56000;51.146;17.112;2023-03-03T07:55:35;100749.40;;;0.50
68952;BMP180;56000;51.146;17.112;2023-03-03T07:58:23;100755.20;;;0.50
68952;BMP180;56000;51.146;17.112;2023-03-03T08:01:30;100750.80;;;0.50
68952;BMP180;56000;51.146;17.112;2023-03-03T08:04:17;100736.80;;;0.52
68952;BMP180;56000;51.146;17.112;2023-03-03T08:06:54;100734.60;;;0.60
68952;BMP180;56000;51.146;17.112;2023-03-03T08:09:49;100739.00;;;0.60
68952;BMP180;56000;51.146;17.112;2023-03-03T08:12:38;100742.00;;;0.60
68952;BMP180;56000;51.146;17.112;2023-03-03T08:15:22;100739.80;;;0.70
68952;BMP180;56000;51.146;17.112;2023-03-03T08:17:56;100745.20;;;0.70
68952;BMP180;56000;51.146;17.112;2023-03-03T08:20:58;100742.80;;;0.80
68952;BMP180;56000;51.146;17.112;2023-03-03T08:23:32;100742.00;;;0.80
68952;BMP180;56000;51.146;17.112;2023-03-03T08:26:05;100737.80;;;0.82
68952;BMP180;56000;51.146;17.112;2023-03-03T08:28:39;100730.60;;;0.90
68952;BMP180;56000;51.146;17.112;2023-03-03T08:31:12;100723.60;;;0.92
68952;BMP180;56000;51.146;17.112;2023-03-03T08:33:58;100719.80;;;1.08
68952;BMP180;56000;51.146;17.112;2023-03-03T08:36:31;100717.20;;;1.10
68952;BMP180;56000;51.146;17.112;2023-03-03T08:39:06;100719.00;;;1.10
68952;BMP180;56000;51.146;17.112;2023-03-03T08:41:40;100722.60;;;1.10
68952;BMP180;56000;51.146;17.112;2023-03-03T08:44:15;100731.00;;;1.10
68952;BMP180;56000;51.146;17.112;2023-03-03T08:46:48;100735.40;;;1.10
68952;BMP180;56000;51.146;17.112;2023-03-03T08:49:21;100743.40;;;1.02
68952;BMP180;56000;51.146;17.112;2023-03-03T08:51:54;100752.80;;;1.08
68952;BMP180;56000;51.146;17.112;2023-03-03T08:54:29;100754.60;;;1.04
68952;BMP180;56000;51.146;17.112;2023-03-03T08:57:02;100758.00;;;1.00
68952;BMP180;56000;51.146;17.112;2023-03-03T08:59:36;100756.80;;;1.00
68952;BMP180;56000;51.146;17.112;2023-03-03T09:02:09;100759.00;;;1.00
68952;BMP180;56000;51.146;17.112;2023-03-03T09:04:43;100764.20;;;1.06
68952;BMP180;56000;51.146;17.112;2023-03-03T09:07:16;100765.80;;;1.10
68952;BMP180;56000;51.146;17.112;2023-03-03T09:09:50;100767.20;;;1.10
68952;BMP180;56000;51.146;17.112;2023-03-03T09:12:29;100768.80;;;1.10
68952;BMP180;56000;51.146;17.112;2023-03-03T09:15:18;100768.00;;;1.10
68952;BMP180;56000;51.146;17.112;2023-03-03T09:17:52;100769.80;;;1.00
68952;BMP180;56000;51.146;17.112;2023-03-03T09:20:36;100770.40;;;1.10
68952;BMP180;56000;51.146;17.112;2023-03-03T09:23:35;100775.20;;;1.10
68952;BMP180;56000;51.146;17.112;2023-03-03T09:26:31;100770.80;;;1.20
68952;BMP180;56000;51.146;17.112;2023-03-03T09:29:24;100774.60;;;1.20
68952;BMP180;56000;51.146;17.112;2023-03-03T09:32:01;100775.60;;;1.22
68952;BMP180;56000;51.146;17.112;2023-03-03T09:34:42;100779.40;;;1.30
68952;BMP180;56000;51.146;17.112;2023-03-03T09:37:25;100783.00;;;1.30
68952;BMP180;56000;51.146;17.112;2023-03-03T09:39:59;100778.80;;;1.38
68952;BMP180;56000;51.146;17.112;2023-03-03T09:42:55;100780.00;;;1.40
68952;BMP180;56000;51.146;17.112;2023-03-03T09:45:49;100778.40;;;1.40
68952;BMP180;56000;51.146;17.112;2023-03-03T09:48:53;100778.80;;;1.40
68952;BMP180;56000;51.146;17.112;2023-03-03T09:51:54;100786.40;;;1.44
68952;BMP180;56000;51.146;17.112;2023-03-03T09:54:46;100783.80;;;1.50
68952;BMP180;56000;51.146;17.112;2023-03-03T09:57:27;100778.20;;;1.50
68952;BMP180;56000;51.146;17.112;2023-03-03T10:00:33;100787.20;;;1.56
68952;BMP180;56000;51.146;17.112;2023-03-03T10:06:21;100787.80;;;1.62
68952;BMP180;56000;51.146;17.112;2023-03-03T10:09:15;100784.80;;;1.68
68952;BMP180;56000;51.146;17.112;2023-03-03T10:11:56;100782.80;;;1.70
68952;BMP180;56000;51.146;17.112;2023-03-03T10:14:46;100785.60;;;1.70
68952;BMP180;56000;51.146;17.112;2023-03-03T10:17:34;100781.00;;;1.70
68952;BMP180;56000;51.146;17.112;2023-03-03T10:20:42;100778.60;;;1.80
68952;BMP180;56000;51.146;17.112;2023-03-03T10:23:31;100778.40;;;1.90
68952;BMP180;56000;51.146;17.112;2023-03-03T10:26:19;100773.20;;;1.90
68952;BMP180;56000;51.146;17.112;2023-03-03T10:29:22;100776.40;;;1.90
68952;BMP180;56000;51.146;17.112;2023-03-03T10:32:29;100776.00;;;1.96
68952;BMP180;56000;51.146;17.112;2023-03-03T10:38:19;100771.40;;;2.02
68952;BMP180;56000;51.146;17.112;2023-03-03T10:40:57;100770.60;;;2.10
68952;BMP180;56000;51.146;17.112;2023-03-03T10:43:51;100770.20;;;2.18
68952;BMP180;56000;51.146;17.112;2023-03-03T10:46:50;100768.80;;;2.18
68952;BMP180;56000;51.146;17.112;2023-03-03T10:49:42;100768.60;;;2.20
68952;BMP180;56000;51.146;17.112;2023-03-03T10:52:35;100769.80;;;2.30
68952;BMP180;56000;51.146;17.112;2023-03-03T10:55:34;100767.20;;;2.40
68952;BMP180;56000;51.146;17.112;2023-03-03T11:01:25;100760.60;;;2.38
68952;BMP180;56000;51.146;17.112;2023-03-03T11:04:29;100753.80;;;2.30
68952;BMP180;56000;51.146;17.112;2023-03-03T11:07:12;100743.00;;;2.40
68952;BMP180;56000;51.146;17.112;2023-03-03T11:10:00;100745.00;;;2.40
68952;BMP180;56000;51.146;17.112;2023-03-03T11:12:57;100745.00;;;2.40
68952;BMP180;56000;51.146;17.112;2023-03-03T11:16:23;100742.40;;;2.40
68952;BMP180;56000;51.146;17.112;2023-03-03T11:19:15;100742.80;;;2.40
68952;BMP180;56000;51.146;17.112;2023-03-03T11:22:02;100741.80;;;2.50
68952;BMP180;56000;51.146;17.112;2023-03-03T11:24:51;100738.00;;;2.60
68952;BMP180;56000;51.146;17.112;2023-03-03T11:27:52;100740.40;;;2.62
68952;BMP180;56000;51.146;17.112;2023-03-03T11:30:52;100734.60;;;2.70
68952;BMP180;56000;51.146;17.112;2023-03-03T11:33:37;100732.60;;;2.80
68952;BMP180;56000;51.146;17.112;2023-03-03T11:36:17;100722.80;;;2.80
68952;BMP180;56000;51.146;17.112;2023-03-03T11:38:57;100728.40;;;2.80
68952;BMP180;56000;51.146;17.112;2023-03-03T11:41:36;100732.60;;;2.90
68952;BMP180;56000;51.146;17.112;2023-03-03T11:44:31;100730.40;;;2.90
68952;BMP180;56000;51.146;17.112;2023-03-03T11:57:20;100725.20;;;3.00
68952;BMP180;56000;51.146;17.112;2023-03-03T12:00:10;100724.00;;;2.90
68952;BMP180;56000;51.146;17.112;2023-03-03T12:03:25;100728.20;;;2.90
68952;BMP180;56000;51.146;17.112;2023-03-03T12:06:07;100730.40;;;2.88
68952;BMP180;56000;51.146;17.112;2023-03-03T12:09:00;100727.20;;;2.80
68952;BMP180;56000;51.146;17.112;2023-03-03T12:11:39;100724.80;;;2.70
68952;BMP180;56000;51.146;17.112;2023-03-03T12:14:22;100713.40;;;2.70
68952;BMP180;56000;51.146;17.112;2023-03-03T12:16:57;100712.20;;;2.80
68952;BMP180;56000;51.146;17.112;2023-03-03T12:19:42;100710.20;;;2.90
68952;BMP180;56000;51.146;17.112;2023-03-03T12:22:31;100703.80;;;2.90
68952;BMP180;56000;51.146;17.112;2023-03-03T12:25:22;100711.20;;;3.00
68952;BMP180;56000;51.146;17.112;2023-03-03T12:28:01;100712.40;;;3.10
68952;BMP180;56000;51.146;17.112;2023-03-03T12:30:53;100712.60;;;3.00
68952;BMP180;56000;51.146;17.112;2023-03-03T12:33:37;100711.60;;;3.00
68952;BMP180;56000;51.146;17.112;2023-03-03T12:36:21;100703.00;;;3.00
68952;BMP180;56000;51.146;17.112;2023-03-03T12:39:00;100700.80;;;2.90
68952;BMP180;56000;51.146;17.112;2023-03-03T12:41:38;100701.20;;;2.90
68952;BMP180;56000;51.146;17.112;2023-03-03T12:44:16;100696.20;;;2.90
68952;BMP180;56000;51.146;17.112;2023-03-03T12:46:55;100703.20;;;3.00
68952;BMP180;56000;51.146;17.112;2023-03-03T12:49:34;100700.20;;;3.00
68952;BMP180;56000;51.146;17.112;2023-03-03T12:52:24;100701.80;;;3.00
68952;BMP180;56000;51.146;17.112;2023-03-03T12:55:09;100692.40;;;3.00
68952;BMP180;56000;51.146;17.112;2023-03-03T12:57:47;100688.60;;;2.90
68952;BMP180;56000;51.146;17.112;2023-03-03T13:00:29;100692.80;;;2.90
68952;BMP180;56000;51.146;17.112;2023-03-03T13:03:10;100693.60;;;2.90
68952;BMP180;56000;51.146;17.112;2023-03-03T13:05:53;100691.60;;;2.90
68952;BMP180;56000;51.146;17.112;2023-03-03T13:08:52;100690.40;;;2.90
68952;BMP180;56000;51.146;17.112;2023-03-03T13:11:44;100695.40;;;2.90
68952;BMP180;56000;51.146;17.112;2023-03-03T13:14:25;100690.60;;;2.90
68952;BMP180;56000;51.146;17.112;2023-03-03T13:17:13;100692.20;;;3.00
68952;BMP180;56000;51.146;17.112;2023-03-03T13:19:48;100698.60;;;3.06
68952;BMP180;56000;51.146;17.112;2023-03-03T13:22:32;100700.20;;;3.02
68952;BMP180;56000;51.146;17.112;2023-03-03T13:25:13;100699.60;;;3.02
68952;BMP180;56000;51.146;17.112;2023-03-03T13:27:51;100698.20;;;3.06
68952;BMP180;56000;51.146;17.112;2023-03-03T13:30:24;100699.00;;;3.10
68952;BMP180;56000;51.146;17.112;2023-03-03T13:32:59;100699.20;;;3.10
68952;BMP180;56000;51.146;17.112;2023-03-03T13:35:41;100697.20;;;3.10
68952;BMP180;56000;51.146;17.112;2023-03-03T13:38:19;100689.80;;;3.06
68952;BMP180;56000;51.146;17.112;2023-03-03T13:40:56;100694.60;;;3.00
68952;BMP180;56000;51.146;17.112;2023-03-03T13:43:32;100695.00;;;3.10
68952;BMP180;56000;51.146;17.112;2023-03-03T13:46:15;100690.60;;;3.10
68952;BMP180;56000;51.146;17.112;2023-03-03T13:49:02;100688.60;;;3.10
68952;BMP180;56000;51.146;17.112;2023-03-03T13:51:44;100675.80;;;3.10
68952;BMP180;56000;51.146;17.112;2023-03-03T13:54:41;100681.20;;;3.10
68952;BMP180;56000;51.146;17.112;2023-03-03T13:57:24;100679.20;;;3.10
68952;BMP180;56000;51.146;17.112;2023-03-03T14:00:09;100673.40;;;3.10
68952;BMP180;56000;51.146;17.112;2023-03-03T14:05:39;100666.40;;;3.20
68952;BMP180;56000;51.146;17.112;2023-03-03T14:08:20;100658.00;;;3.20
68952;BMP180;56000;51.146;17.112;2023-03-03T14:11:08;100653.80;;;3.30
68952;BMP180;56000;51.146;17.112;2023-03-03T14:13:47;100649.40;;;3.40
68952;BMP180;56000;51.146;17.112;2023-03-03T14:16:33;100652.60;;;3.40
68952;BMP180;56000;51.146;17.112;2023-03-03T14:19:12;100651.60;;;3.30
68952;BMP180;56000;51.146;17.112;2023-03-03T14:21:51;100647.60;;;3.30
68952;BMP180;56000;51.146;17.112;2023-03-03T14:24:23;100646.40;;;3.30
68952;BMP180;56000;51.146;17.112;2023-03-03T14:26:56;100651.80;;;3.30
68952;BMP180;56000;51.146;17.112;2023-03-03T14:29:33;100657.60;;;3.30
68952;BMP180;56000;51.146;17.112;2023-03-03T14:32:21;100658.20;;;3.30
68952;BMP180;56000;51.146;17.112;2023-03-03T14:35:21;100657.80;;;3.30
68952;BMP180;56000;51.146;17.112;2023-03-03T14:37:51;100645.40;;;3.30
68952;BMP180;56000;51.146;17.112;2023-03-03T14:40:28;100649.00;;;3.40
68952;BMP180;56000;51.146;17.112;2023-03-03T14:43:01;100645.40;;;3.40
68952;BMP180;56000;51.146;17.112;2023-03-03T14:45:35;100638.20;;;3.40
68952;BMP180;56000;51.146;17.112;2023-03-03T14:48:16;100647.80;;;3.40
68952;BMP180;56000;51.146;17.112;2023-03-03T14:50:51;100645.20;;;3.30
68952;BMP180;56000;51.146;17.112;2023-03-03T14:53:35;100643.00;;;3.30
68952;BMP180;56000;51.146;17.112;2023-03-03T14:56:24;100654.40;;;3.20
68952;BMP180;56000;51.146;17.112;2023-03-03T14:59:15;100652.80;;;3.10
68952;BMP180;56000;51.146;17.112;2023-03-03T15:01:46;100647.80;;;2.94
68952;BMP180;56000;51.146;17.112;2023-03-03T15:04:25;100645.00;;;2.90
68952;BMP180;56000;51.146;17.112;2023-03-03T15:06:55;100644.40;;;2.90
68952;BMP180;56000;51.146;17.112;2023-03-03T15:09:39;100638.40;;;2.80
68952;BMP180;56000;51.146;17.112;2023-03-03T15:12:23;100629.40;;;2.80
68952;BMP180;56000;51.146;17.112;2023-03-03T15:15:06;100629.40;;;2.70
68952;BMP180;56000;51.146;17.112;2023-03-03T15:17:43;100619.60;;;2.70
68952;BMP180;56000;51.146;17.112;2023-03-03T15:20:32;100628.40;;;2.60
68952;BMP180;56000;51.146;17.112;2023-03-03T15:23:21;100616.80;;;2.60
68952;BMP180;56000;51.146;17.112;2023-03-03T15:25:59;100626.00;;;2.60
68952;BMP180;56000;51.146;17.112;2023-03-03T15:28:42;100623.00;;;2.60